sensor_id;sensor_type;location;lat;lon;timestamp;P1;P2;P0
62599;PMS7003;48671;48.922;2.346;2023-06-04T00:01:03;0.00;0.00;0.00
62599;PMS7003;48671;48.922;2.346;2023-06-04T00:03:29;0.00;0.00;0.00
62599;PMS7003;48671;48.922;2.346;2023-06-04T00:05:54;0.00;0.00;0.00
62599;PMS7003;48671;48.922;2.346;2023-06-04T00:08:20;0.00;0.00;0.00
62599;PMS7003;48671;48.922;2.346;2023-06-04T00:10:45;0.00;0.00;0.00
62599;PMS7003;48671;48.922;2.346;2023-06-04T00:13:11;0.00;0.00;0.00
62599;PMS7003;48671;48.922;2.346;2023-06-04T00:15:36;0.00;0.00;0.00
62599;PMS7003;48671;48.922;2.346;2023-06-04T00:18:01;0.00;0.00;0.00
62599;PMS7003;48671;48.922;2.346;2023-06-04T00:20:27;0.00;0.00;0.00
62599;PMS7003;48671;48.922;2.346;2023-06-04T00:22:52;0.00;0.00;0.00
62599;PMS7003;48671;48.922;2.346;2023-06-04T00:25:18;0.00;0.00;0.00
62599;PMS7003;48671;48.922;2.346;2023-06-04T00:27:43;0.00;0.00;0.00
62599;PMS7003;48671;48.922;2.346;2023-06-04T00:30:08;0.00;0.00;0.00
62599;PMS7003;48671;48.922;2.346;2023-06-04T00:32:34;0.00;0.00;0.00
62599;PMS7003;48671;48.922;2.346;2023-06-04T00:34:59;0.00;0.00;0.00
62599;PMS7003;48671;48.922;2.346;2023-06-04T00:37:26;0.00;0.00;0.00
62599;PMS7003;48671;48.922;2.346;2023-06-04T00:39:53;0.00;0.00;0.00
62599;PMS7003;48671;48.922;2.346;2023-06-04T00:42:19;0.00;0.00;0.00
62599;PMS7003;48671;48.922;2.346;2023-06-04T00:44:44;0.00;0.00;0.00
62599;PMS7003;48671;48.922;2.346;2023-06-04T00:47:13;0.00;0.00;0.00
62599;PMS7003;48671;48.922;2.346;2023-06-04T00:49:40;0.00;0.00;0.00
62599;PMS7003;48671;48.922;2.346;2023-06-04T00:52:09;0.00;0.00;0.00
62599;PMS7003;48671;48.922;2.346;2023-06-04T00:54:35;0.00;0.00;0.00
62599;PMS7003;48671;48.922;2.346;2023-06-04T00:57:02;0.00;0.00;0.00
62599;PMS7003;48671;48.922;2.346;2023-06-04T00:59:28;0.00;0.00;0.00
62599;PMS7003;48671;48.922;2.346;2023-06-04T01:02:04;0.00;0.00;0.00
62599;PMS7003;48671;48.922;2.346;2023-06-04T01:07:00;0.00;0.00;0.00
62599;PMS7003;48671;48.922;2.346;2023-06-04T01:09:28;0.00;0.00;0.00
62599;PMS7003;48671;48.922;2.346;2023-06-04T01:11:53;0.00;0.00;0.00
62599;PMS7003;48671;48.922;2.346;2023-06-04T01:14:23;0.00;0.00;0.00
62599;PMS7003;48671;48.922;2.346;2023-06-04T01:16:52;0.00;0.00;0.00
62599;PMS7003;48671;48.922;2.346;2023-06-04T01:22:48;0.00;0.00;0.00
62599;PMS7003;48671;48.922;2.346;2023-06-04T01:27:48;0.00;0.00;0.00
62599;PMS7003;48671;48.922;2.346;2023-06-04T01:30:17;0.00;0.00;0.00
62599;PMS7003;48671;48.922;2.346;2023-06-04T01:32:45;0.00;0.00;0.00
62599;PMS7003;48671;48.922;2.346;2023-06-04T01:35:11;0.00;0.00;0.00
62599;PMS7003;48671;48.922;2.346;2023-06-04T01:37:37;0.00;0.00;0.00
62599;PMS7003;48671;48.922;2.346;2023-06-04T01:40:03;0.00;0.00;0.00
62599;PMS7003;48671;48.922;2.346;2023-06-04T01:42:28;0.00;0.00;0.00
62599;PMS7003;48671;48.922;2.346;2023-06-04T01:44:53;0.00;0.00;0.00
62599;PMS7003;48671;48.922;2.346;2023-06-04T01:47:19;0.00;0.00;0.00
62599;PMS7003;48671;48.922;2.346;2023-06-04T01:49:44;0.00;0.00;0.00
62599;PMS7003;48671;48.922;2.346;2023-06-04T01:52:10;0.00;0.00;0.00
62599;PMS7003;48671;48.922;2.346;2023-06-04T01:54:36;0.00;0.00;0.00
62599;PMS7003;48671;48.922;2.346;2023-06-04T01:57:03;0.00;0.00;0.00
62599;PMS7003;48671;48.922;2.346;2023-06-04T01:59:28;0.00;0.00;0.00
62599;PMS7003;48671;48.922;2.346;2023-06-04T02:01:53;0.00;0.00;0.00
62599;PMS7003;48671;48.922;2.346;2023-06-04T02:04:19;0.00;0.00;0.00
62599;PMS7003;48671;48.922;2.346;2023-06-04T02:06:46;0.00;0.00;0.00
62599;PMS7003;48671;48.922;2.346;2023-06-04T02:09:11;0.00;0.00;0.00
62599;PMS7003;48671;48.922;2.346;2023-06-04T02:11:37;0.00;0.00;0.00
62599;PMS7003;48671;48.922;2.346;2023-06-04T02:14:02;0.00;0.00;0.00
62599;PMS7003;48671;48.922;2.346;2023-06-04T02:16:27;0.00;0.00;0.00
62599;PMS7003;48671;48.922;2.346;2023-06-04T02:18:52;0.00;0.00;0.00
62599;PMS7003;48671;48.922;2.346;2023-06-04T02:21:18;0.00;0.00;0.00
62599;PMS7003;48671;48.922;2.346;2023-06-04T02:23:43;0.00;0.00;0.00
62599;PMS7003;48671;48.922;2.346;2023-06-04T02:26:09;0.00;0.00;0.00
62599;PMS7003;48671;48.922;2.346;2023-06-04T02:28:34;0.00;0.00;0.00
62599;PMS7003;48671;48.922;2.346;2023-06-04T02:30:59;0.00;0.00;0.00
62599;PMS7003;48671;48.922;2.346;2023-06-04T02:33:24;0.00;0.00;0.00
62599;PMS7003;48671;48.922;2.346;2023-06-04T02:35:50;0.00;0.00;0.00
62599;PMS7003;48671;48.922;2.346;2023-06-04T02:38:15;0.00;0.00;0.00
62599;PMS7003;48671;48.922;2.346;2023-06-04T02:40:41;0.00;0.00;0.00
62599;PMS7003;48671;48.922;2.346;2023-06-04T02:43:07;0.00;0.00;0.00
62599;PMS7003;48671;48.922;2.346;2023-06-04T02:45:32;0.00;0.00;0.00
62599;PMS7003;48671;48.922;2.346;2023-06-04T02:47:58;0.00;0.00;0.00
62599;PMS7003;48671;48.922;2.346;2023-06-04T02:50:23;0.00;0.00;0.00
62599;PMS7003;48671;48.922;2.346;2023-06-04T02:52:48;0.00;0.00;0.00
62599;PMS7003;48671;48.922;2.346;2023-06-04T02:55:14;0.00;0.00;0.00
62599;PMS7003;48671;48.922;2.346;2023-06-04T02:57:42;0.00;0.00;0.00
62599;PMS7003;48671;48.922;2.346;2023-06-04T03:00:09;0.00;0.00;0.00
62599;PMS7003;48671;48.922;2.346;2023-06-04T03:02:39;0.00;0.00;0.00
62599;PMS7003;48671;48.922;2.346;2023-06-04T03:05:07;0.00;0.00;0.00
62599;PMS7003;48671;48.922;2.346;2023-06-04T03:07:35;0.00;0.00;0.00
62599;PMS7003;48671;48.922;2.346;2023-06-04T03:10:01;0.00;0.00;0.00
62599;PMS7003;48671;48.922;2.346;2023-06-04T03:12:27;0.00;0.00;0.00
62599;PMS7003;48671;48.922;2.346;2023-06-04T03:14:52;0.00;0.00;0.00
62599;PMS7003;48671;48.922;2.346;2023-06-04T03:17:17;0.00;0.00;0.00
62599;PMS7003;48671;48.922;2.346;2023-06-04T03:19:43;0.00;0.00;0.00
62599;PMS7003;48671;48.922;2.346;2023-06-04T03:22:08;0.00;0.00;0.00
62599;PMS7003;48671;48.922;2.346;2023-06-04T03:24:38;0.00;0.00;0.00
62599;PMS7003;48671;48.922;2.346;2023-06-04T03:27:04;0.00;0.00;0.00
62599;PMS7003;48671;48.922;2.346;2023-06-04T03:29:32;0.00;0.00;0.00
62599;PMS7003;48671;48.922;2.346;2023-06-04T03:31:58;0.00;0.00;0.00
62599;PMS7003;48671;48.922;2.346;2023-06-04T03:34:25;0.00;0.00;0.00
62599;PMS7003;48671;48.922;2.346;2023-06-04T03:36:51;0.00;0.00;0.00
62599;PMS7003;48671;48.922;2.346;2023-06-04T03:39:17;0.00;0.00;0.00
62599;PMS7003;48671;48.922;2.346;2023-06-04T03:41:42;0.00;0.00;0.00
62599;PMS7003;48671;48.922;2.346;2023-06-04T03:44:08;0.00;0.00;0.00
62599;PMS7003;48671;48.922;2.346;2023-06-04T03:46:33;0.00;0.00;0.00
62599;PMS7003;48671;48.922;2.346;2023-06-04T03:48:59;0.00;0.00;0.00
62599;PMS7003;48671;48.922;2.346;2023-06-04T03:51:24;0.00;0.00;0.00
62599;PMS7003;48671;48.922;2.346;2023-06-04T03:53:50;0.00;0.00;0.00
62599;PMS7003;48671;48.922;2.346;2023-06-04T03:56:15;0.00;0.00;0.00
62599;PMS7003;48671;48.922;2.346;2023-06-04T03:58:41;0.00;0.00;0.00
62599;PMS7003;48671;48.922;2.346;2023-06-04T04:01:06;0.00;0.00;0.00
62599;PMS7003;48671;48.922;2.346;2023-06-04T04:03:33;0.00;0.00;0.00
62599;PMS7003;48671;48.922;2.346;2023-06-04T04:05:59;0.00;0.00;0.00
62599;PMS7003;48671;48.922;2.346;2023-06-04T04:08:27;0.00;0.00;0.00
62599;PMS7003;48671;48.922;2.346;2023-06-04T04:10:56;0.00;0.00;0.00
62599;PMS7003;48671;48.922;2.346;2023-06-04T04:13:24;0.00;0.00;0.00
62599;PMS7003;48671;48.922;2.346;2023-06-04T04:15:50;0.00;0.00;0.00
62599;PMS7003;48671;48.922;2.346;2023-06-04T04:18:17;0.00;0.00;0.00
62599;PMS7003;48671;48.922;2.346;2023-06-04T04:20:45;0.00;0.00;0.00
62599;PMS7003;48671;48.922;2.346;2023-06-04T04:23:11;0.00;0.00;0.00
62599;PMS7003;48671;48.922;2.346;2023-06-04T04:25:36;0.00;0.00;0.00
62599;PMS7003;48671;48.922;2.346;2023-06-04T04:28:02;0.00;0.00;0.00
62599;PMS7003;48671;48.922;2.346;2023-06-04T04:30:33;0.00;0.00;0.00
62599;PMS7003;48671;48.922;2.346;2023-06-04T04:33:00;0.00;0.00;0.00
62599;PMS7003;48671;48.922;2.346;2023-06-04T04:35:30;0.00;0.00;0.00
62599;PMS7003;48671;48.922;2.346;2023-06-04T04:37:57;0.00;0.00;0.00
62599;PMS7003;48671;48.922;2.346;2023-06-04T04:40:23;0.00;0.00;0.00
62599;PMS7003;48671;48.922;2.346;2023-06-04T04:42:49;0.00;0.00;0.00
62599;PMS7003;48671;48.922;2.346;2023-06-04T04:45:14;0.00;0.00;0.00
62599;PMS7003;48671;48.922;2.346;2023-06-04T04:47:39;0.00;0.00;0.00
62599;PMS7003;48671;48.922;2.346;2023-06-04T04:50:05;0.00;0.00;0.00
62599;PMS7003;48671;48.922;2.346;2023-06-04T04:52:30;0.00;0.00;0.00
62599;PMS7003;48671;48.922;2.346;2023-06-04T04:54:56;0.00;0.00;0.00
62599;PMS7003;48671;48.922;2.346;2023-06-04T04:57:22;0.00;0.00;0.00
62599;PMS7003;48671;48.922;2.346;2023-06-04T04:59:48;0.00;0.00;0.00
62599;PMS7003;48671;48.922;2.346;2023-06-04T05:02:14;0.00;0.00;0.00
62599;PMS7003;48671;48.922;2.346;2023-06-04T05:04:40;0.00;0.00;0.00
62599;PMS7003;48671;48.922;2.346;2023-06-04T05:07:05;0.00;0.00;0.00
62599;PMS7003;48671;48.922;2.346;2023-06-04T05:09:30;0.00;0.00;0.00
62599;PMS7003;48671;48.922;2.346;2023-06-04T05:11:55;0.00;0.00;0.00
62599;PMS7003;48671;48.922;2.346;2023-06-04T05:14:21;0.00;0.00;0.00
62599;PMS7003;48671;48.922;2.346;2023-06-04T05:16:46;0.00;0.00;0.00
62599;PMS7003;48671;48.922;2.346;2023-06-04T05:19:13;0.00;0.00;0.00
62599;PMS7003;48671;48.922;2.346;2023-06-04T05:21:39;0.75;0.75;0.00
62599;PMS7003;48671;48.922;2.346;2023-06-04T05:24:04;0.00;0.00;0.00
62599;PMS7003;48671;48.922;2.346;2023-06-04T05:26:30;0.00;0.00;0.00
62599;PMS7003;48671;48.922;2.346;2023-06-04T05:28:58;0.00;0.00;0.00
62599;PMS7003;48671;48.922;2.346;2023-06-04T05:31:24;0.00;0.00;0.00
62599;PMS7003;48671;48.922;2.346;2023-06-04T05:33:51;0.00;0.00;0.00
62599;PMS7003;48671;48.922;2.346;2023-06-04T05:36:17;0.00;0.00;0.00
62599;PMS7003;48671;48.922;2.346;2023-06-04T05:38:43;0.00;0.00;0.00
62599;PMS7003;48671;48.922;2.346;2023-06-04T05:41:08;0.00;0.00;0.00
62599;PMS7003;48671;48.922;2.346;2023-06-04T05:43:33;0.00;0.00;0.00
62599;PMS7003;48671;48.922;2.346;2023-06-04T05:45:58;0.00;0.00;0.00
62599;PMS7003;48671;48.922;2.346;2023-06-04T05:48:24;0.00;0.00;0.00
62599;PMS7003;48671;48.922;2.346;2023-06-04T05:50:49;0.00;0.00;0.00
62599;PMS7003;48671;48.922;2.346;2023-06-04T05:53:15;0.00;0.00;0.00
62599;PMS7003;48671;48.922;2.346;2023-06-04T05:55:41;0.00;0.00;0.00
62599;PMS7003;48671;48.922;2.346;2023-06-04T05:58:06;0.00;0.00;0.00
62599;PMS7003;48671;48.922;2.346;2023-06-04T06:00:32;0.00;0.00;0.00
62599;PMS7003;48671;48.922;2.346;2023-06-04T06:02:57;0.00;0.00;0.00
62599;PMS7003;48671;48.922;2.346;2023-06-04T06:05:22;0.00;0.00;0.00
62599;PMS7003;48671;48.922;2.346;2023-06-04T06:07:48;0.00;0.00;0.00
62599;PMS7003;48671;48.922;2.346;2023-06-04T06:10:13;0.00;0.00;0.00
62599;PMS7003;48671;48.922;2.346;2023-06-04T06:12:40;0.00;0.00;0.00
62599;PMS7003;48671;48.922;2.346;2023-06-04T06:15:05;0.00;0.00;0.00
62599;PMS7003;48671;48.922;2.346;2023-06-04T06:17:31;0.00;0.00;0.00
62599;PMS7003;48671;48.922;2.346;2023-06-04T06:19:57;0.00;0.00;0.00
62599;PMS7003;48671;48.922;2.346;2023-06-04T06:22:23;0.00;0.00;0.00
62599;PMS7003;48671;48.922;2.346;2023-06-04T06:24:48;0.00;0.00;0.00
62599;PMS7003;48671;48.922;2.346;2023-06-04T06:27:14;0.00;0.00;0.00
62599;PMS7003;48671;48.922;2.346;2023-06-04T06:29:40;0.00;0.00;0.00
62599;PMS7003;48671;48.922;2.346;2023-06-04T06:32:06;0.00;0.00;0.00
62599;PMS7003;48671;48.922;2.346;2023-06-04T06:34:32;0.00;0.00;0.00
62599;PMS7003;48671;48.922;2.346;2023-06-04T06:36:57;0.00;0.00;0.00
62599;PMS7003;48671;48.922;2.346;2023-06-04T06:39:22;0.00;0.00;0.00
62599;PMS7003;48671;48.922;2.346;2023-06-04T06:41:48;0.00;0.00;0.00
62599;PMS7003;48671;48.922;2.346;2023-06-04T06:44:13;0.00;0.00;0.00
62599;PMS7003;48671;48.922;2.346;2023-06-04T06:46:38;0.00;0.00;0.00
62599;PMS7003;48671;48.922;2.346;2023-06-04T06:49:04;0.00;0.00;0.00
62599;PMS7003;48671;48.922;2.346;2023-06-04T06:51:29;0.00;0.00;0.00
62599;PMS7003;48671;48.922;2.346;2023-06-04T06:53:55;0.00;0.00;0.00
62599;PMS7003;48671;48.922;2.346;2023-06-04T06:56:20;0.00;0.00;0.00
62599;PMS7003;48671;48.922;2.346;2023-06-04T06:58:45;0.00;0.00;0.00
62599;PMS7003;48671;48.922;2.346;2023-06-04T07:01:11;0.00;0.00;0.00
62599;PMS7003;48671;48.922;2.346;2023-06-04T07:03:37;0.00;0.00;0.00
62599;PMS7003;48671;48.922;2.346;2023-06-04T07:06:04;0.00;0.00;0.00
62599;PMS7003;48671;48.922;2.346;2023-06-04T07:08:30;0.00;0.00;0.00
62599;PMS7003;48671;48.922;2.346;2023-06-04T07:10:56;0.00;0.00;0.00
62599;PMS7003;48671;48.922;2.346;2023-06-04T07:13:21;0.00;0.00;0.00
62599;PMS7003;48671;48.922;2.346;2023-06-04T07:15:47;0.00;0.00;0.00
62599;PMS7003;48671;48.922;2.346;2023-06-04T07:18:12;0.00;0.00;0.00
62599;PMS7003;48671;48.922;2.346;2023-06-04T07:20:37;0.00;0.00;0.00
62599;PMS7003;48671;48.922;2.346;2023-06-04T07:23:03;0.00;0.00;0.00
62599;PMS7003;48671;48.922;2.346;2023-06-04T07:25:28;0.00;0.00;0.00
62599;PMS7003;48671;48.922;2.346;2023-06-04T07:27:53;0.00;0.00;0.00
62599;PMS7003;48671;48.922;2.346;2023-06-04T07:30:22;0.00;0.00;0.00
62599;PMS7003;48671;48.922;2.346;2023-06-04T07:32:48;0.00;0.00;0.00
62599;PMS7003;48671;48.922;2.346;2023-06-04T07:35:13;0.00;0.00;0.00
62599;PMS7003;48671;48.922;2.346;2023-06-04T07:37:39;0.00;0.00;0.00
62599;PMS7003;48671;48.922;2.346;2023-06-04T07:40:04;0.00;0.00;0.00
62599;PMS7003;48671;48.922;2.346;2023-06-04T07:42:30;0.00;0.00;0.00
62599;PMS7003;48671;48.922;2.346;2023-06-04T07:44:56;0.00;0.00;0.00
62599;PMS7003;48671;48.922;2.346;2023-06-04T07:47:21;0.00;0.00;0.00
62599;PMS7003;48671;48.922;2.346;2023-06-04T07:49:47;0.00;0.00;0.00
62599;PMS7003;48671;48.922;2.346;2023-06-04T07:52:12;0.00;0.00;0.00
62599;PMS7003;48671;48.922;2.346;2023-06-04T07:54:38;0.00;0.00;0.00
62599;PMS7003;48671;48.922;2.346;2023-06-04T07:57:06;0.00;0.00;0.00
62599;PMS7003;48671;48.922;2.346;2023-06-04T07:59:31;0.00;0.00;0.00
62599;PMS7003;48671;48.922;2.346;2023-06-04T08:01:57;0.00;0.00;0.00
62599;PMS7003;48671;48.922;2.346;2023-06-04T08:04:22;0.00;0.00;0.00
62599;PMS7003;48671;48.922;2.346;2023-06-04T08:06:47;0.00;0.00;0.00
62599;PMS7003;48671;48.922;2.346;2023-06-04T08:09:14;0.00;0.00;0.00
62599;PMS7003;48671;48.922;2.346;2023-06-04T08:11:40;0.00;0.00;0.00
62599;PMS7003;48671;48.922;2.346;2023-06-04T08:14:07;0.00;0.00;0.00
62599;PMS7003;48671;48.922;2.346;2023-06-04T08:16:32;0.00;0.00;0.00
62599;PMS7003;48671;48.922;2.346;2023-06-04T08:18:57;0.00;0.00;0.00
62599;PMS7003;48671;48.922;2.346;2023-06-04T08:21:26;0.00;0.00;0.00
62599;PMS7003;48671;48.922;2.346;2023-06-04T08:23:52;0.00;0.00;0.00
62599;PMS7003;48671;48.922;2.346;2023-06-04T08:26:18;0.00;0.00;0.00
62599;PMS7003;48671;48.922;2.346;2023-06-04T08:28:44;0.00;0.00;0.00
62599;PMS7003;48671;48.922;2.346;2023-06-04T08:31:12;0.00;0.00;0.00
62599;PMS7003;48671;48.922;2.346;2023-06-04T08:33:37;0.00;0.00;0.00
62599;PMS7003;48671;48.922;2.346;2023-06-04T08:36:02;0.00;0.00;0.00
62599;PMS7003;48671;48.922;2.346;2023-06-04T08:38:28;0.00;0.00;0.00
62599;PMS7003;48671;48.922;2.346;2023-06-04T08:40:53;0.00;0.00;0.00
62599;PMS7003;48671;48.922;2.346;2023-06-04T08:43:22;0.00;0.00;0.00
62599;PMS7003;48671;48.922;2.346;2023-06-04T08:45:49;0.00;0.00;0.00
62599;PMS7003;48671;48.922;2.346;2023-06-04T08:48:17;0.00;0.00;0.00
62599;PMS7003;48671;48.922;2.346;2023-06-04T08:50:44;0.00;0.00;0.00
62599;PMS7003;48671;48.922;2.346;2023-06-04T08:53:13;0.75;0.75;0.00
62599;PMS7003;48671;48.922;2.346;2023-06-04T08:55:40;0.00;0.00;0.00
62599;PMS7003;48671;48.922;2.346;2023-06-04T08:58:06;0.00;0.00;0.00
62599;PMS7003;48671;48.922;2.346;2023-06-04T09:00:35;0.00;0.00;0.00
62599;PMS7003;48671;48.922;2.346;2023-06-04T09:03:01;0.00;0.00;0.00
62599;PMS7003;48671;48.922;2.346;2023-06-04T09:05:28;0.00;0.00;0.00
62599;PMS7003;48671;48.922;2.346;2023-06-04T09:07:55;0.00;0.00;0.00
62599;PMS7003;48671;48.922;2.346;2023-06-04T09:10:25;0.00;0.00;0.00
62599;PMS7003;48671;48.922;2.346;2023-06-04T09:12:54;0.00;0.00;0.00
62599;PMS7003;48671;48.922;2.346;2023-06-04T09:15:26;0.00;0.00;0.00
62599;PMS7003;48671;48.922;2.346;2023-06-04T09:17:51;0.00;0.00;0.00
62599;PMS7003;48671;48.922;2.346;2023-06-04T09:20:20;0.00;0.00;0.00
62599;PMS7003;48671;48.922;2.346;2023-06-04T09:22:46;0.00;0.00;0.00
62599;PMS7003;48671;48.922;2.346;2023-06-04T09:25:18;0.00;0.00;0.00
62599;PMS7003;48671;48.922;2.346;2023-06-04T09:27:51;0.00;0.00;0.00
62599;PMS7003;48671;48.922;2.346;2023-06-04T09:30:18;0.00;0.00;0.00
62599;PMS7003;48671;48.922;2.346;2023-06-04T09:32:43;0.00;0.00;0.00
62599;PMS7003;48671;48.922;2.346;2023-06-04T09:35:13;51.00;23.00;4.00
62599;PMS7003;48671;48.922;2.346;2023-06-04T09:37:51;0.00;0.00;0.00
62599;PMS7003;48671;48.922;2.346;2023-06-04T09:40:17;0.00;0.00;0.00
62599;PMS7003;48671;48.922;2.346;2023-06-04T09:42:44;0.00;0.00;0.00
62599;PMS7003;48671;48.922;2.346;2023-06-04T09:45:10;0.00;0.00;0.00
62599;PMS7003;48671;48.922;2.346;2023-06-04T09:47:40;0.00;0.00;0.00
62599;PMS7003;48671;48.922;2.346;2023-06-04T09:50:07;0.00;0.00;0.00
62599;PMS7003;48671;48.922;2.346;2023-06-04T09:52:33;0.00;0.00;0.00
62599;PMS7003;48671;48.922;2.346;2023-06-04T09:54:59;0.00;0.00;0.00
62599;PMS7003;48671;48.922;2.346;2023-06-04T09:57:24;0.00;0.00;0.00
62599;PMS7003;48671;48.922;2.346;2023-06-04T09:59:50;0.00;0.00;0.00
62599;PMS7003;48671;48.922;2.346;2023-06-04T10:02:19;0.00;0.00;0.00
62599;PMS7003;48671;48.922;2.346;2023-06-04T10:04:48;0.00;0.00;0.00
62599;PMS7003;48671;48.922;2.346;2023-06-04T10:07:17;0.00;0.00;0.00
62599;PMS7003;48671;48.922;2.346;2023-06-04T10:09:43;0.00;0.00;0.00
62599;PMS7003;48671;48.922;2.346;2023-06-04T10:12:15;0.00;0.00;0.00
62599;PMS7003;48671;48.922;2.346;2023-06-04T10:14:41;0.00;0.00;0.00
62599;PMS7003;48671;48.922;2.346;2023-06-04T10:17:13;0.00;0.00;0.00
62599;PMS7003;48671;48.922;2.346;2023-06-04T10:19:42;0.00;0.00;0.00
62599;PMS7003;48671;48.922;2.346;2023-06-04T10:22:09;0.00;0.00;0.00
62599;PMS7003;48671;48.922;2.346;2023-06-04T10:24:36;1.25;0.25;0.00
62599;PMS7003;48671;48.922;2.346;2023-06-04T10:27:01;0.00;0.00;0.00
62599;PMS7003;48671;48.922;2.346;2023-06-04T10:29:35;0.00;0.00;0.00
62599;PMS7003;48671;48.922;2.346;2023-06-04T10:32:01;0.00;0.00;0.00
62599;PMS7003;48671;48.922;2.346;2023-06-04T10:34:26;0.00;0.00;0.00
62599;PMS7003;48671;48.922;2.346;2023-06-04T10:36:52;0.00;0.00;0.00
62599;PMS7003;48671;48.922;2.346;2023-06-04T10:39:24;0.00;0.00;0.00
62599;PMS7003;48671;48.922;2.346;2023-06-04T10:41:58;0.00;0.00;0.00
62599;PMS7003;48671;48.922;2.346;2023-06-04T10:44:28;0.00;0.00;0.00
62599;PMS7003;48671;48.922;2.346;2023-06-04T10:46:54;0.00;0.00;0.00
62599;PMS7003;48671;48.922;2.346;2023-06-04T10:49:29;0.00;0.00;0.00
62599;PMS7003;48671;48.922;2.346;2023-06-04T10:51:56;0.00;0.00;0.00
62599;PMS7003;48671;48.922;2.346;2023-06-04T10:54:23;0.00;0.00;0.00
62599;PMS7003;48671;48.922;2.346;2023-06-04T10:56:50;0.00;0.00;0.00
62599;PMS7003;48671;48.922;2.346;2023-06-04T10:59:17;0.00;0.00;0.00
62599;PMS7003;48671;48.922;2.346;2023-06-04T11:01:43;0.00;0.00;0.00
62599;PMS7003;48671;48.922;2.346;2023-06-04T11:04:24;0.00;0.00;0.00
62599;PMS7003;48671;48.922;2.346;2023-06-04T11:07:00;0.25;0.25;0.00
62599;PMS7003;48671;48.922;2.346;2023-06-04T11:09:29;0.00;0.00;0.00
62599;PMS7003;48671;48.922;2.346;2023-06-04T11:11:59;0.00;0.00;0.00
62599;PMS7003;48671;48.922;2.346;2023-06-04T11:14:24;0.00;0.00;0.00
62599;PMS7003;48671;48.922;2.346;2023-06-04T11:16:50;0.00;0.00;0.00
62599;PMS7003;48671;48.922;2.346;2023-06-04T11:19:16;0.00;0.00;0.00
62599;PMS7003;48671;48.922;2.346;2023-06-04T11:21:41;0.00;0.00;0.00
62599;PMS7003;48671;48.922;2.346;2023-06-04T11:24:06;0.00;0.00;0.00
62599;PMS7003;48671;48.922;2.346;2023-06-04T11:26:33;0.00;0.00;0.00
62599;PMS7003;48671;48.922;2.346;2023-06-04T11:29:00;0.00;0.00;0.00
62599;PMS7003;48671;48.922;2.346;2023-06-04T11:31:26;0.00;0.00;0.00
62599;PMS7003;48671;48.922;2.346;2023-06-04T11:33:51;0.00;0.00;0.00
62599;PMS7003;48671;48.922;2.346;2023-06-04T11:39:00;0.25;0.25;0.00
62599;PMS7003;48671;48.922;2.346;2023-06-04T11:41:28;0.00;0.00;0.00
62599;PMS7003;48671;48.922;2.346;2023-06-04T11:43:56;0.00;0.00;0.00
62599;PMS7003;48671;48.922;2.346;2023-06-04T11:46:22;0.00;0.00;0.00
62599;PMS7003;48671;48.922;2.346;2023-06-04T11:48:47;0.00;0.00;0.00
62599;PMS7003;48671;48.922;2.346;2023-06-04T11:51:16;0.00;0.00;0.00
62599;PMS7003;48671;48.922;2.346;2023-06-04T11:53:42;0.00;0.00;0.00
62599;PMS7003;48671;48.922;2.346;2023-06-04T11:56:08;29.00;27.75;17.00
62599;PMS7003;48671;48.922;2.346;2023-06-04T11:58:33;4.25;4.25;2.25
62599;PMS7003;48671;48.922;2.346;2023-06-04T12:00:59;0.00;0.00;0.00
62599;PMS7003;48671;48.922;2.346;2023-06-04T12:03:33;0.00;0.00;0.00
62599;PMS7003;48671;48.922;2.346;2023-06-04T12:06:14;0.00;0.00;0.00
62599;PMS7003;48671;48.922;2.346;2023-06-04T12:08:59;0.00;0.00;0.00
62599;PMS7003;48671;48.922;2.346;2023-06-04T12:11:34;0.00;0.00;0.00
62599;PMS7003;48671;48.922;2.346;2023-06-04T12:14:06;1.00;1.00;0.25
62599;PMS7003;48671;48.922;2.346;2023-06-04T12:16:32;1.50;1.50;0.75
62599;PMS7003;48671;48.922;2.346;2023-06-04T12:19:08;0.25;0.25;0.00
62599;PMS7003;48671;48.922;2.346;2023-06-04T12:21:35;20.75;20.75;14.00
62599;PMS7003;48671;48.922;2.346;2023-06-04T12:24:10;14.25;14.00;8.50
62599;PMS7003;48671;48.922;2.346;2023-06-04T12:26:38;14.50;14.50;9.75
62599;PMS7003;48671;48.922;2.346;2023-06-04T12:29:16;13.25;12.50;8.50
62599;PMS7003;48671;48.922;2.346;2023-06-04T12:31:45;11.75;11.75;7.75
62599;PMS7003;48671;48.922;2.346;2023-06-04T12:34:11;30.00;27.75;19.25
62599;PMS7003;48671;48.922;2.346;2023-06-04T12:36:38;2.75;2.75;1.50
62599;PMS7003;48671;48.922;2.346;2023-06-04T12:39:04;26.50;26.50;17.50
62599;PMS7003;48671;48.922;2.346;2023-06-04T12:41:30;30.50;29.00;19.75
62599;PMS7003;48671;48.922;2.346;2023-06-04T12:43:56;14.25;14.25;9.50
62599;PMS7003;48671;48.922;2.346;2023-06-04T12:46:22;22.50;22.25;14.75
62599;PMS7003;48671;48.922;2.346;2023-06-04T12:48:49;15.50;15.25;10.50
62599;PMS7003;48671;48.922;2.346;2023-06-04T12:51:15;13.00;12.75;7.50
62599;PMS7003;48671;48.922;2.346;2023-06-04T12:53:41;14.75;14.75;10.00
62599;PMS7003;48671;48.922;2.346;2023-06-04T12:56:07;9.50;9.50;7.00
62599;PMS7003;48671;48.922;2.346;2023-06-04T12:58:32;17.50;17.00;11.00
62599;PMS7003;48671;48.922;2.346;2023-06-04T13:00:58;45.33;37.33;21.00
62599;PMS7003;48671;48.922;2.346;2023-06-04T13:03:24;39.75;35.25;25.50
62599;PMS7003;48671;48.922;2.346;2023-06-04T13:05:50;67.67;59.00;40.67
62599;PMS7003;48671;48.922;2.346;2023-06-04T13:08:16;56.25;46.75;31.25
62599;PMS7003;48671;48.922;2.346;2023-06-04T13:10:42;26.75;25.00;17.75
62599;PMS7003;48671;48.922;2.346;2023-06-04T13:13:07;30.00;27.25;20.00
62599;PMS7003;48671;48.922;2.346;2023-06-04T13:15:33;30.50;28.50;18.25
62599;PMS7003;48671;48.922;2.346;2023-06-04T13:17:58;9.00;9.00;5.75
62599;PMS7003;48671;48.922;2.346;2023-06-04T13:20:24;58.75;48.00;31.25
62599;PMS7003;48671;48.922;2.346;2023-06-04T13:22:49;64.00;54.75;36.00
62599;PMS7003;48671;48.922;2.346;2023-06-04T13:25:15;55.25;47.75;31.25
62599;PMS7003;48671;48.922;2.346;2023-06-04T13:27:40;31.50;28.50;18.50
62599;PMS7003;48671;48.922;2.346;2023-06-04T13:30:06;38.75;34.75;21.75
62599;PMS7003;48671;48.922;2.346;2023-06-04T13:32:31;49.75;42.25;27.50
62599;PMS7003;48671;48.922;2.346;2023-06-04T13:34:57;24.75;23.25;16.50
62599;PMS7003;48671;48.922;2.346;2023-06-04T13:37:22;21.25;20.00;13.50
62599;PMS7003;48671;48.922;2.346;2023-06-04T13:39:48;63.25;53.25;30.50
62599;PMS7003;48671;48.922;2.346;2023-06-04T13:42:13;70.33;64.33;40.67
62599;PMS7003;48671;48.922;2.346;2023-06-04T13:44:38;75.00;71.00;45.75
62599;PMS7003;48671;48.922;2.346;2023-06-04T13:47:04;24.75;24.75;15.25
62599;PMS7003;48671;48.922;2.346;2023-06-04T13:49:31;30.75;28.50;19.00
62599;PMS7003;48671;48.922;2.346;2023-06-04T13:51:58;46.50;40.00;27.00
62599;PMS7003;48671;48.922;2.346;2023-06-04T13:54:23;62.67;53.67;34.00
62599;PMS7003;48671;48.922;2.346;2023-06-04T13:56:49;65.75;57.25;36.00
62599;PMS7003;48671;48.922;2.346;2023-06-04T13:59:14;73.67;69.00;40.67
62599;PMS7003;48671;48.922;2.346;2023-06-04T14:01:39;69.00;62.75;38.75
62599;PMS7003;48671;48.922;2.346;2023-06-04T14:04:05;83.75;83.50;53.50
62599;PMS7003;48671;48.922;2.346;2023-06-04T14:06:31;95.75;95.75;56.50
62599;PMS7003;48671;48.922;2.346;2023-06-04T14:08:57;84.33;83.33;53.33
62599;PMS7003;48671;48.922;2.346;2023-06-04T14:11:22;110.50;109.25;64.75
62599;PMS7003;48671;48.922;2.346;2023-06-04T14:13:47;110.75;110.75;63.00
62599;PMS7003;48671;48.922;2.346;2023-06-04T14:16:13;105.33;105.33;67.00
62599;PMS7003;48671;48.922;2.346;2023-06-04T14:18:39;107.67;107.67;59.67
62599;PMS7003;48671;48.922;2.346;2023-06-04T14:21:05;119.75;118.75;72.00
62599;PMS7003;48671;48.922;2.346;2023-06-04T14:23:30;119.75;119.75;68.75